This is the latest recevied weather packets stored in our database for station/object SP4MAZ-13. If no packets are shown the sender has not sent any weather packets the latest 10 day(s).
| Time | Temp. | Humidity | Pressure | Rain* | Wind** | Luminosity | Snow |
|---|---|---|---|---|---|---|---|
| 1777963785 | 14.44° C | 78% | 2147.4 hPa | - | - | - | - |
| 1777963482 | 14.44° C | 80% | 2147.4 hPa | - | - | - | - |
| 1777963179 | 15° C | 74% | 2147.4 hPa | - | - | - | - |
| 1777962875 | 15.56° C | 70% | 2147.4 hPa | - | - | - | - |
| 1777962572 | 15° C | 75% | 2147.4 hPa | - | - | - | - |
| 1777962268 | 15° C | 78% | 2147.4 hPa | - | - | - | - |
| 1777961966 | 14.44° C | 84% | 2147.4 hPa | - | - | - | - |
| 1777961662 | 14.44° C | 84% | 2147.4 hPa | - | - | - | - |
| 1777961358 | 13.89° C | 84% | 2147.4 hPa | - | - | - | - |
| 1777961055 | 12.78° C | 92% | 2147.4 hPa | - | - | - | - |
| 1777960751 | 12.22° C | 96% | 2147.4 hPa | - | - | - | - |
| 1777960448 | 12.22° C | 99% | 2147.4 hPa | - | - | - | - |
| 1777960145 | 12.22° C | 99% | 2147.4 hPa | - | - | - | - |
| 1777959841 | 11.67° C | 99% | 2147.4 hPa | - | - | - | - |
| 1777959537 | 12.78° C | 94% | 2147.4 hPa | - | - | - | - |
| 1777959234 | 13.33° C | 92% | 2147.4 hPa | - | - | - | - |
| 1777958930 | 12.78° C | 98% | 2147.4 hPa | - | - | - | - |
| 1777958627 | 12.22° C | 99% | 2147.4 hPa | - | - | - | - |
| 1777958324 | 12.22° C | 99% | 2147.4 hPa | - | - | - | - |
| 1777958020 | 12.22° C | 98% | 2147.4 hPa | - | - | - | - |
| 1777957717 | 13.33° C | 89% | 2147.4 hPa | - | - | - | - |
| 1777957413 | 13.89° C | 92% | 2147.4 hPa | - | - | - | - |
| 1777957111 | 14.44° C | 79% | 2147.4 hPa | - | - | - | - |
| 1777956809 | 15.56° C | 88% | 2147.4 hPa | - | - | - | - |
| 1777956505 | 15° C | 90% | 2147.4 hPa | - | - | - | - |
* Rain since midnight (hover to see other rain measurements)
** Current wind speed in m/s (hover to see current wind gust speed)